Portada
METAR-TAF:

METAR-TAF

Aeropuertos :

Dübendorf, Suiza

latitud: 47-23-55N, longitud: 8-38-53E, altitud: 448 m

Observación

El informe se hizo hace 22 minutos, a las 02:20 UTC
Viento 2 kt con dirección variable
Temperatura 10°C
Humedad 66%
Presión 1019 hPa
Visibilidad 10 km o más

METAR: LSMD 010220Z AUTO VRB02KT 9999NDV NCD 10/04 Q1019 RMK

Hora: 04:42 (02:42 UTC)


TAF: falta

Observaciones y pronósticos meteorológicos de más de 4000 aeropuertos (mensajes METAR y TAF).

Los puntos amarillos y rojos representan las estaciones disponibles.

Ponga el ratón en el punto deseado para ver el nombre de la estación.

Haga clic para ver las observaciones y los pronósticos meteorológicos.

Para cambiar el mapa : haga clic en los botones verdes con una cruz de color negro para hacer un zoom, en el botón verde con un guión para alejar o en las flechas verdes para mapas adyacentes.


METAR-TAF: